Time;durP1;ratioP1;P1;durP2;ratioP2;P2;SDS_P1;SDS_P2;PMS_P1;PMS_P2;Temp;Humidity;BMP_temperature;BMP_pressure;BME280_temperature;BME280_humidity;BME280_pressure;Samples;Min_cycle;Max_cycle;Signal;HPM_P1;HPM_P2
2022/11/01 00:01:10;;;;;;;32.20;16.77;;;;;;;14.17;100.00;101115.16;5016525;28;20440;-69
2022/11/01 00:03:36;;;;;;;31.97;16.60;;;;;;;14.13;100.00;101103.28;5016121;28;20900;-70
2022/11/01 00:06:03;;;;;;;34.47;15.00;;;;;;;14.10;100.00;101093.00;5016397;28;20491;-70
2022/11/01 00:08:30;;;;;;;31.20;16.53;;;;;;;14.05;100.00;101079.50;5016427;28;20440;-70
2022/11/01 00:11:03;;;;;;;35.77;15.70;;;;;;;14.07;100.00;101056.28;5016444;28;20455;-70
2022/11/01 00:13:30;;;;;;;28.00;15.67;;;;;;;14.10;100.00;101049.41;5016347;28;20467;-70
2022/11/01 00:15:56;;;;;;;30.93;18.40;;;;;;;14.11;100.00;101045.56;5017475;28;20452;-70
2022/11/01 00:18:23;;;;;;;36.77;17.13;;;;;;;14.11;100.00;101056.47;5016236;28;20454;-70
2022/11/01 00:20:50;;;;;;;38.10;18.40;;;;;;;14.09;100.00;101043.16;5016195;28;20450;-69
2022/11/01 00:23:16;;;;;;;32.93;17.60;;;;;;;14.16;100.00;101050.88;5016002;28;20448;-69
2022/11/01 00:25:43;;;;;;;29.00;16.63;;;;;;;14.16;100.00;101063.69;5015921;28;20987;-70
2022/11/01 00:28:11;;;;;;;27.70;17.00;;;;;;;14.19;100.00;101063.88;5016367;28;20607;-70
2022/11/01 00:30:38;;;;;;;28.93;17.40;;;;;;;14.18;100.00;101072.38;5015761;28;20854;-69
2022/11/01 00:33:05;;;;;;;44.07;19.20;;;;;;;14.15;100.00;101092.84;5016014;28;20443;-70
2022/11/01 00:35:32;;;;;;;32.70;15.97;;;;;;;14.23;100.00;101077.69;5015879;28;20464;-69
2022/11/01 00:37:59;;;;;;;39.47;19.17;;;;;;;14.21;100.00;101077.16;5015824;28;20444;-69
2022/11/01 00:40:26;;;;;;;35.30;17.70;;;;;;;14.17;100.00;101068.84;5015790;28;20447;-69
2022/11/01 00:42:52;;;;;;;39.60;19.43;;;;;;;14.13;100.00;101082.28;5015557;28;20947;-69
2022/11/01 00:45:21;;;;;;;37.70;18.47;;;;;;;14.08;100.00;101066.06;5015639;28;20467;-69
2022/11/01 00:47:48;;;;;;;36.83;17.10;;;;;;;14.03;100.00;101055.31;5015348;28;20485;-69
2022/11/01 00:50:15;;;;;;;32.10;17.63;;;;;;;14.02;100.00;101053.69;5015770;28;20462;-73
2022/11/01 00:52:41;;;;;;;28.40;15.70;;;;;;;14.01;100.00;101046.66;5015668;28;20440;-69
2022/11/01 00:55:09;;;;;;;38.30;18.87;;;;;;;14.00;100.00;101036.88;5015581;28;21007;-70
2022/11/01 00:57:35;;;;;;;33.50;17.50;;;;;;;13.97;100.00;101040.22;5015434;28;20818;-70
2022/11/01 01:00:02;;;;;;;27.93;14.70;;;;;;;13.96;100.00;101040.53;5015497;28;20455;-70
2022/11/01 01:02:30;;;;;;;33.80;18.20;;;;;;;13.92;100.00;101029.44;5015404;28;20931;-70
2022/11/01 01:04:57;;;;;;;31.97;17.60;;;;;;;13.90;100.00;101034.41;5014598;28;20471;-70
2022/11/01 01:07:23;;;;;;;33.33;17.23;;;;;;;13.91;100.00;101030.56;5015406;28;20495;-68
2022/11/01 01:09:50;;;;;;;31.20;16.37;;;;;;;13.90;100.00;101023.53;5015366;28;20449;-68
2022/11/01 01:12:16;;;;;;;31.33;16.10;;;;;;;13.88;100.00;101026.53;5015313;28;20452;-66
2022/11/01 01:14:43;;;;;;;36.33;19.00;;;;;;;13.86;100.00;101017.09;5015117;28;20484;-68
2022/11/01 01:17:09;;;;;;;33.53;16.33;;;;;;;13.84;100.00;101017.38;5015148;28;20474;-68
2022/11/01 01:19:37;;;;;;;28.10;14.40;;;;;;;13.79;100.00;101017.53;5015065;28;20462;-68
2022/11/01 01:22:04;;;;;;;29.50;15.60;;;;;;;13.77;100.00;101019.78;5015004;28;20451;-68
2022/11/01 01:24:31;;;;;;;33.47;17.70;;;;;;;13.70;100.00;101019.41;5014860;28;20460;-68
2022/11/01 01:26:58;;;;;;;32.00;16.70;;;;;;;13.65;100.00;101032.34;5014793;28;20483;-67
2022/11/01 01:29:25;;;;;;;35.33;16.87;;;;;;;13.67;100.00;101030.91;5014738;28;20793;-67
2022/11/01 01:31:52;;;;;;;33.53;16.80;;;;;;;13.66;100.00;101039.38;5014722;28;20444;-69
2022/11/01 01:34:19;;;;;;;40.70;16.80;;;;;;;13.63;100.00;101049.78;5015023;28;20464;-70
2022/11/01 01:36:47;;;;;;;26.20;15.07;;;;;;;13.59;100.00;101047.97;5014809;28;20483;-70
2022/11/01 01:39:14;;;;;;;33.93;16.80;;;;;;;13.57;100.00;101044.78;5014677;28;20444;-70
2022/11/01 01:41:55;;;;;;;33.53;15.60;;;;;;;13.44;100.00;101032.03;5014865;28;20448;-70
2022/11/01 01:45:18;;;;;;;25.13;15.10;;;;;;;13.31;100.00;101041.84;5014835;28;20552;-70
2022/11/01 01:47:48;;;;;;;30.87;14.53;;;;;;;13.23;100.00;101021.63;5014421;28;20480;-70
2022/11/01 01:50:18;;;;;;;30.33;15.43;;;;;;;13.18;100.00;101015.47;5014617;28;20463;-69
2022/11/01 01:52:50;;;;;;;27.00;15.37;;;;;;;13.15;100.00;101006.03;5014672;28;20452;-70
2022/11/01 01:55:22;;;;;;;31.57;15.50;;;;;;;13.12;100.00;100993.03;5014649;28;20468;-70
2022/11/01 01:57:50;;;;;;;33.50;16.43;;;;;;;13.12;100.00;100988.38;5014494;28;20448;-69
2022/11/01 02:00:17;;;;;;;30.13;14.77;;;;;;;13.08;100.00;100986.59;5014402;28;20447;-69
2022/11/01 02:02:44;;;;;;;32.50;15.10;;;;;;;13.09;100.00;100988.19;5014282;28;20459;-69
2022/11/01 02:05:17;;;;;;;34.23;15.27;;;;;;;13.07;100.00;100983.06;5014491;28;20460;-70
2022/11/01 02:07:45;;;;;;;29.47;15.30;;;;;;;13.10;100.00;100963.44;5014124;28;20480;-69
2022/11/01 02:10:14;;;;;;;35.07;15.73;;;;;;;13.10;100.00;100966.16;5014179;28;20471;-69
2022/11/01 02:12:46;;;;;;;28.20;16.07;;;;;;;13.10;100.00;100963.44;5014212;28;20444;-70
2022/11/01 02:15:13;;;;;;;25.70;14.50;;;;;;;13.10;100.00;100955.28;5013015;28;20480;-70
2022/11/01 02:17:51;;;;;;;30.53;17.00;;;;;;;13.13;100.00;100951.91;5014172;28;20467;-70
2022/11/01 02:20:51;;;;;;;28.20;14.57;;;;;;;13.15;100.00;100954.34;5014065;28;20451;-69
2022/11/01 02:23:38;;;;;;;28.23;14.97;;;;;;;13.14;100.00;100941.84;4971366;28;20454;-70
2022/11/01 02:26:29;;;;;;;30.37;15.77;;;;;;;13.14;100.00;100941.84;5013848;28;20470;-69
2022/11/01 02:29:12;;;;;;;34.50;17.20;;;;;;;13.11;100.00;100939.75;5014014;28;20807;-70
2022/11/01 02:32:00;;;;;;;39.53;16.30;;;;;;;13.15;100.00;100935.31;5014086;28;20436;-70
2022/11/01 02:34:33;;;;;;;27.03;14.43;;;;;;;13.17;100.00;100929.53;5013860;28;20471;-70
2022/11/01 02:37:04;;;;;;;33.20;15.70;;;;;;;13.11;100.00;100916.06;5013942;28;20503;-70
2022/11/01 02:39:35;;;;;;;28.70;15.07;;;;;;;13.12;100.00;100914.97;5013899;28;20444;-70
2022/11/01 02:42:10;;;;;;;35.10;16.30;;;;;;;13.11;100.00;100923.44;5013804;28;20459;-70
2022/11/01 02:44:42;;;;;;;35.73;16.50;;;;;;;13.16;100.00;100917.06;5013934;28;20506;-70
2022/11/01 02:47:11;;;;;;;27.87;15.97;;;;;;;13.10;100.00;100917.19;5013765;28;20468;-70
2022/11/01 02:49:41;;;;;;;28.10;15.30;;;;;;;13.09;100.00;100918.28;5013625;28;20444;-70
2022/11/01 02:52:10;;;;;;;34.07;15.43;;;;;;;13.14;100.00;100920.06;5013510;28;20441;-70
2022/11/01 02:54:39;;;;;;;29.23;14.70;;;;;;;13.13;100.00;100910.31;5013659;28;20474;-70
2022/11/01 02:57:17;;;;;;;34.63;16.87;;;;;;;13.11;100.00;100918.78;5013577;28;20448;-70
2022/11/01 02:59:46;;;;;;;30.40;16.33;;;;;;;13.09;100.00;100914.75;5013735;28;20440;-70
2022/11/01 03:02:20;;;;;;;25.90;14.57;;;;;;;13.12;100.00;100914.97;5013506;28;20444;-70
2022/11/01 03:04:48;;;;;;;26.17;15.33;;;;;;;13.14;100.00;100915.44;5013460;28;20468;-70
2022/11/01 03:07:16;;;;;;;24.30;12.30;;;;;;;13.14;100.00;100920.06;5013490;28;20510;-71
2022/11/01 03:09:43;;;;;;;26.87;15.47;;;;;;;13.14;100.00;100930.94;5013439;28;20502;-70
2022/11/01 03:12:18;;;;;;;36.40;16.57;;;;;;;13.13;100.00;100929.34;5013326;28;20647;-70
2022/11/01 03:14:52;;;;;;;29.33;16.10;;;;;;;13.11;100.00;100920.72;5013114;28;20521;-70
2022/11/01 03:17:31;;;;;;;27.37;15.07;;;;;;;13.08;100.00;100933.00;5013624;28;20444;-70
2022/11/01 03:20:05;;;;;;;28.83;16.70;;;;;;;13.05;100.00;100927.38;5013334;28;20866;-70
2022/11/01 03:22:42;;;;;;;31.20;15.80;;;;;;;13.00;100.00;100925.59;5013447;28;20454;-70
2022/11/01 03:28:04;;;;;;;27.53;13.83;;;;;;;12.90;100.00;100941.34;5016317;28;20519;-69
2022/11/01 03:30:33;;;;;;;25.37;14.53;;;;;;;12.81;100.00;100939.34;5017315;28;20511;-70
2022/11/01 03:33:01;;;;;;;34.07;17.67;;;;;;;12.77;100.00;100938.34;5017145;28;20440;-70
2022/11/01 03:35:31;;;;;;;28.03;14.40;;;;;;;12.72;100.00;100938.47;5017021;28;20487;-70
2022/11/01 03:38:02;;;;;;;25.60;14.77;;;;;;;12.63;100.00;100943.03;5017037;28;20443;-70
2022/11/01 03:40:30;;;;;;;33.47;15.70;;;;;;;12.59;100.00;100934.69;5016821;28;21009;-70
2022/11/01 03:43:02;;;;;;;27.23;14.13;;;;;;;12.58;100.00;100932.28;5016760;28;20822;-70
2022/11/01 03:45:30;;;;;;;31.13;14.53;;;;;;;12.51;100.00;100929.16;5017134;28;20475;-70
2022/11/01 03:47:57;;;;;;;28.70;13.27;;;;;;;12.46;100.00;100934.72;5016753;28;20901;-70
2022/11/01 03:50:27;;;;;;;29.97;14.30;;;;;;;12.34;100.00;100936.03;5016808;28;20444;-69
2022/11/01 03:52:53;;;;;;;23.50;13.77;;;;;;;12.33;100.00;100929.00;5016933;28;20448;-70
2022/11/01 03:55:21;;;;;;;26.33;11.60;;;;;;;12.28;100.00;100922.88;5016775;28;20471;-70
2022/11/01 03:57:48;;;;;;;24.87;15.10;;;;;;;12.28;100.00;100910.09;5016867;28;20813;-70
2022/11/01 04:00:17;;;;;;;31.53;13.67;;;;;;;12.24;100.00;100911.00;5016693;28;20452;-69
2022/11/01 04:02:43;;;;;;;28.30;12.33;;;;;;;12.16;100.00;100901.66;5016320;28;20955;-70
2022/11/01 04:05:10;;;;;;;33.30;15.10;;;;;;;12.12;100.00;100897.94;5016561;28;20478;-69
2022/11/01 04:07:39;;;;;;;24.20;14.10;;;;;;;12.11;100.00;100910.72;5016117;28;20902;-70
2022/11/01 04:10:06;;;;;;;25.27;13.27;;;;;;;12.03;100.00;100924.19;5016466;28;20454;-69
2022/11/01 04:12:33;;;;;;;24.83;14.17;;;;;;;11.98;100.00;100910.72;5016431;28;20459;-69
2022/11/01 04:20:33;;;;;;;32.43;13.93;;;;;;;11.90;100.00;100912.22;5016375;28;21035;-69
2022/11/01 04:23:01;;;;;;;26.73;14.10;;;;;;;11.79;100.00;100925.16;5016492;28;20446;-70
2022/11/01 04:25:28;;;;;;;28.70;14.00;;;;;;;11.78;100.00;100937.13;5016208;28;20464;-69
2022/11/01 04:27:55;;;;;;;29.80;15.00;;;;;;;11.74;100.00;100938.84;5016013;28;20476;-70
2022/11/01 04:30:22;;;;;;;22.67;11.67;;;;;;;11.70;100.00;100934.31;5016224;28;20468;-69
2022/11/01 04:32:48;;;;;;;27.27;12.57;;;;;;;11.71;100.00;100930.50;5015737;28;20947;-70
2022/11/01 04:35:15;;;;;;;21.50;13.50;;;;;;;11.61;100.00;100917.91;5016173;28;20492;-69
2022/11/01 04:37:42;;;;;;;27.13;12.33;;;;;;;11.65;100.00;100910.00;5015814;28;20444;-70
2022/11/01 04:40:12;;;;;;;31.33;15.07;;;;;;;11.66;100.00;100901.53;5015326;28;20452;-69
2022/11/01 04:42:38;;;;;;;22.07;12.70;;;;;;;11.67;100.00;100907.78;5015917;28;20439;-69
2022/11/01 04:45:07;;;;;;;29.00;14.13;;;;;;;11.65;100.00;100920.84;5015735;28;20483;-69
2022/11/01 04:47:34;;;;;;;31.43;14.93;;;;;;;11.66;100.00;100919.72;5015755;28;20487;-70
2022/11/01 04:50:01;;;;;;;26.80;12.70;;;;;;;11.72;100.00;100913.91;5015733;28;20450;-69
2022/11/01 04:52:28;;;;;;;26.33;13.20;;;;;;;11.76;100.00;100912.19;5015729;28;20445;-69
2022/11/01 04:54:54;;;;;;;28.33;14.37;;;;;;;11.83;100.00;100907.22;5015702;28;20499;-70
2022/11/01 04:57:25;;;;;;;28.80;14.00;;;;;;;11.99;100.00;100901.47;5015682;28;20464;-69
2022/11/01 04:59:52;;;;;;;32.13;15.20;;;;;;;12.08;100.00;100902.38;5015230;28;20828;-69
2022/11/01 05:02:21;;;;;;;32.63;16.37;;;;;;;12.21;100.00;100898.03;5015279;28;21005;-70
2022/11/01 05:04:48;;;;;;;30.47;14.10;;;;;;;12.30;100.00;100896.19;5015592;28;20504;-70
2022/11/01 05:07:15;;;;;;;35.10;16.27;;;;;;;12.41;100.00;100891.38;5015401;28;20480;-70
2022/11/01 05:09:41;;;;;;;34.20;17.40;;;;;;;12.47;100.00;100896.38;5015435;28;20966;-70
2022/11/01 05:12:09;;;;;;;33.17;15.53;;;;;;;12.60;100.00;100881.13;5015294;28;20459;-70
2022/11/01 05:14:36;;;;;;;32.80;17.37;;;;;;;12.74;100.00;100881.09;5014970;28;20471;-70
2022/11/01 05:17:03;;;;;;;32.20;15.87;;;;;;;12.86;100.00;100879.41;5015234;28;20448;-70
2022/11/01 05:19:30;;;;;;;35.20;16.00;;;;;;;12.93;100.00;100859.16;5015058;28;20448;-70
2022/11/01 05:21:58;;;;;;;31.03;16.53;;;;;;;12.99;100.00;100849.75;5015210;28;20796;-70
2022/11/01 05:24:25;;;;;;;29.53;17.07;;;;;;;13.02;100.00;100860.03;5015207;28;20475;-70
2022/11/01 05:26:51;;;;;;;37.10;17.57;;;;;;;13.06;100.00;100863.72;5014904;28;20452;-70
2022/11/01 05:29:18;;;;;;;33.53;16.67;;;;;;;12.97;100.00;100857.41;5015133;28;20465;-70
2022/11/01 05:31:46;;;;;;;34.57;16.17;;;;;;;13.01;100.00;100853.75;5015051;28;20441;-69
2022/11/01 05:34:12;;;;;;;31.97;16.90;;;;;;;12.98;100.00;100857.13;5014773;28;20471;-70
2022/11/01 05:36:39;;;;;;;34.30;18.33;;;;;;;12.96;100.00;100858.53;5014896;28;20812;-69
2022/11/01 05:39:05;;;;;;;36.63;18.43;;;;;;;12.95;100.00;100846.84;5014727;28;20978;-70
2022/11/01 05:41:32;;;;;;;35.83;17.70;;;;;;;12.96;100.00;100844.94;5014816;28;20447;-70
2022/11/01 05:43:58;;;;;;;30.60;17.20;;;;;;;12.95;100.00;100848.78;5014658;28;20460;-70
2022/11/01 05:46:25;;;;;;;35.47;16.40;;;;;;;13.02;100.00;100852.66;5014807;28;20452;-70
2022/11/01 05:48:53;;;;;;;29.47;17.20;;;;;;;13.01;100.00;100864.63;5014693;28;20491;-71
2022/11/01 05:51:20;;;;;;;34.10;16.07;;;;;;;13.03;100.00;100864.34;5014519;28;20451;-68
2022/11/01 05:53:48;;;;;;;35.87;16.70;;;;;;;13.06;100.00;100863.72;5014429;28;21018;-70
2022/11/01 05:56:14;;;;;;;33.00;16.50;;;;;;;13.09;100.00;100876.69;5014568;28;20442;-71
2022/11/01 05:58:41;;;;;;;29.57;14.73;;;;;;;13.08;100.00;100884.06;5014528;28;20451;-71
2022/11/01 06:01:08;;;;;;;26.93;15.47;;;;;;;13.10;100.00;100894.59;5014122;28;20452;-71
2022/11/01 06:03:36;;;;;;;33.43;15.83;;;;;;;13.13;100.00;100897.50;5014203;28;20448;-71
2022/11/01 06:06:04;;;;;;;36.93;18.03;;;;;;;13.08;100.00;100885.97;5014368;28;20444;-70
2022/11/01 06:08:31;;;;;;;29.10;15.07;;;;;;;13.12;100.00;100895.13;5014534;28;20480;-71
2022/11/01 06:11:02;;;;;;;32.97;17.20;;;;;;;13.13;100.00;100883.13;5014255;28;20970;-72
2022/11/01 06:13:28;;;;;;;34.43;17.93;;;;;;;13.13;100.00;100878.47;5014300;28;20471;-71
2022/11/01 06:15:58;;;;;;;32.73;15.70;;;;;;;13.12;100.00;100874.16;5015429;28;20480;-71
2022/11/01 06:18:24;;;;;;;30.20;14.67;;;;;;;13.17;100.00;100872.44;5014081;28;20458;-71
2022/11/01 06:20:51;;;;;;;36.60;14.47;;;;;;;13.18;100.00;100880.25;5014136;28;20512;-71
2022/11/01 06:23:19;;;;;;;31.93;14.70;;;;;;;13.19;100.00;100870.19;5014027;28;20444;-71
2022/11/01 06:25:46;;;;;;;31.50;13.10;;;;;;;13.18;100.00;100860.41;5013854;28;20464;-71
2022/11/01 06:28:12;;;;;;;32.87;15.77;;;;;;;13.22;100.00;100862.25;5014182;28;20480;-71
2022/11/01 06:30:39;;;;;;;29.23;15.87;;;;;;;13.20;100.00;100867.16;5013688;28;20835;-70
2022/11/01 06:33:08;;;;;;;37.00;17.00;;;;;;;13.19;100.00;100864.75;5013972;28;20450;-71
2022/11/01 06:35:34;;;;;;;39.73;14.87;;;;;;;13.19;100.00;100864.75;5014003;28;20468;-71
2022/11/01 06:38:02;;;;;;;30.93;15.67;;;;;;;13.19;100.00;100873.69;5013746;28;20454;-71
2022/11/01 06:40:30;;;;;;;31.07;16.23;;;;;;;13.20;100.00;100885.41;5013492;28;20844;-71
2022/11/01 06:42:59;;;;;;;31.80;14.90;;;;;;;13.20;100.00;100888.94;5013694;28;20451;-72
2022/11/01 06:45:25;;;;;;;33.47;16.23;;;;;;;13.25;100.00;100893.47;5013575;28;20471;-71
2022/11/01 06:47:52;;;;;;;23.87;14.40;;;;;;;13.27;100.00;100886.59;5013575;28;20484;-71
2022/11/01 06:50:18;;;;;;;40.00;16.10;;;;;;;13.32;100.00;100881.00;5013659;28;20436;-70
2022/11/01 06:52:45;;;;;;;31.40;14.53;;;;;;;13.33;100.00;100881.84;5013745;28;20819;-71
2022/11/01 06:55:11;;;;;;;33.80;16.27;;;;;;;13.36;100.00;100878.47;5013541;28;20463;-71
2022/11/01 06:57:39;;;;;;;34.27;16.67;;;;;;;13.34;100.00;100881.50;5013358;28;20978;-71
2022/11/01 07:00:08;;;;;;;34.07;15.87;;;;;;;13.36;100.00;100886.63;5013362;28;20539;-71
2022/11/01 07:02:34;;;;;;;32.57;15.20;;;;;;;13.41;100.00;100889.22;5012969;28;20448;-71
2022/11/01 07:05:01;;;;;;;38.13;16.47;;;;;;;13.50;100.00;100909.13;5013488;28;20968;-70
2022/11/01 07:07:28;;;;;;;35.40;16.83;;;;;;;13.54;100.00;100892.97;5012697;28;20455;-71
2022/11/01 07:09:54;;;;;;;35.40;16.53;;;;;;;13.52;100.00;100889.78;5013480;28;20467;-71
2022/11/01 07:12:21;;;;;;;30.17;15.33;;;;;;;13.49;100.00;100898.53;5013365;28;20452;-70
2022/11/01 07:14:48;;;;;;;25.60;14.37;;;;;;;13.45;100.00;100900.28;5013103;28;20475;-70
2022/11/01 07:17:15;;;;;;;23.70;12.20;;;;;;;13.46;100.00;100904.59;5012992;28;20440;-71
2022/11/01 07:19:41;;;;;;;28.33;15.30;;;;;;;13.49;100.00;100910.22;5013345;28;20534;-70
2022/11/01 07:22:08;;;;;;;32.70;15.97;;;;;;;13.57;100.00;100922.28;5013225;28;20448;-70
2022/11/01 07:24:35;;;;;;;29.60;14.27;;;;;;;13.63;100.00;100924.56;5013379;28;20493;-70
2022/11/01 07:27:01;;;;;;;25.50;13.63;;;;;;;13.64;100.00;100919.94;5013189;28;20444;-70
2022/11/01 07:29:28;;;;;;;37.23;16.27;;;;;;;13.69;100.00;100917.06;5012979;28;20487;-70
2022/11/01 07:31:55;;;;;;;25.20;13.60;;;;;;;13.76;100.00;100924.78;5013221;28;20437;-70
2022/11/01 07:34:22;;;;;;;33.17;13.97;;;;;;;13.80;100.00;100932.00;5012856;28;20501;-70
2022/11/01 07:36:52;;;;;;;22.70;13.87;;;;;;;13.83;100.00;100942.25;5013202;28;20444;-70
2022/11/01 07:39:18;;;;;;;27.47;15.17;;;;;;;13.86;100.00;100946.28;5013274;28;20463;-71
2022/11/01 07:41:45;;;;;;;29.93;14.77;;;;;;;13.88;100.00;100950.28;5013103;28;20444;-71
2022/11/01 07:44:11;;;;;;;29.43;15.47;;;;;;;13.87;100.00;100956.88;5012875;28;20469;-70
2022/11/01 07:46:38;;;;;;;24.93;14.90;;;;;;;13.87;100.00;100956.88;5013129;28;20440;-71
2022/11/01 07:49:06;;;;;;;27.43;13.80;;;;;;;13.89;100.00;100970.94;5012807;28;20486;-70
2022/11/01 07:51:32;;;;;;;26.43;13.70;;;;;;;13.84;100.00;100965.66;5013030;28;20444;-71
2022/11/01 07:53:59;;;;;;;26.30;14.00;;;;;;;13.89;100.00;100981.84;5012936;28;20466;-71
2022/11/01 07:56:25;;;;;;;32.77;12.90;;;;;;;13.87;100.00;100975.13;5013118;28;20440;-70
2022/11/01 07:58:52;;;;;;;24.40;13.80;;;;;;;13.87;100.00;100969.69;5012948;28;20452;-71
2022/11/01 08:01:18;;;;;;;24.53;13.73;;;;;;;13.87;100.00;100969.69;5012953;28;20463;-71
2022/11/01 08:03:45;;;;;;;31.03;13.50;;;;;;;13.87;100.00;100948.69;5012845;28;20440;-70
2022/11/01 08:06:13;;;;;;;26.30;14.30;;;;;;;13.86;100.00;100952.53;5012853;28;20440;-70
2022/11/01 08:08:39;;;;;;;26.00;13.83;;;;;;;13.91;100.00;100954.31;5012593;28;20480;-70
2022/11/01 08:11:06;;;;;;;35.97;12.77;;;;;;;13.97;100.00;100983.00;5012826;28;20444;-71
2022/11/01 08:13:32;;;;;;;23.07;12.20;;;;;;;13.98;100.00;100962.81;5013495;28;20444;-70
2022/11/01 08:16:01;;;;;;;27.87;14.67;;;;;;;13.96;100.00;100950.66;5015997;28;20456;-70
2022/11/01 08:18:28;;;;;;;20.93;12.27;;;;;;;14.08;100.00;100959.84;5016548;28;20455;-71
2022/11/01 08:20:55;;;;;;;21.90;12.10;;;;;;;14.15;100.00;100956.63;5016265;28;20519;-70
2022/11/01 08:23:22;;;;;;;20.87;12.60;;;;;;;14.21;100.00;100963.56;5016040;28;20470;-71
2022/11/01 08:25:49;;;;;;;30.43;13.73;;;;;;;14.24;100.00;100946.56;5016225;28;20459;-70
2022/11/01 08:28:18;;;;;;;21.37;12.53;;;;;;;14.17;100.00;100959.06;5016143;28;20578;-71
2022/11/01 08:30:46;;;;;;;23.57;13.40;;;;;;;14.26;100.00;100955.25;5016123;28;20533;-70
2022/11/01 08:33:13;;;;;;;20.47;12.27;;;;;;;14.30;100.00;100967.13;5016110;28;20539;-70
2022/11/01 08:35:40;;;;;;;24.53;12.70;;;;;;;14.31;100.00;100974.16;5016142;28;20465;-70
2022/11/01 08:38:06;;;;;;;24.90;12.70;;;;;;;14.39;100.00;100978.03;5016286;28;20454;-70
2022/11/01 08:40:34;;;;;;;20.43;11.00;;;;;;;14.44;100.00;100983.34;5016001;28;20436;-71
2022/11/01 08:43:01;;;;;;;18.00;11.43;;;;;;;14.49;100.00;100985.16;5015860;28;20436;-70
2022/11/01 08:45:28;;;;;;;18.60;10.63;;;;;;;14.45;100.00;100975.97;5015654;28;20466;-71
2022/11/01 08:47:59;;;;;;;20.27;10.90;;;;;;;14.52;100.00;100979.03;5015729;28;20502;-70
2022/11/01 08:50:26;;;;;;;26.73;11.70;;;;;;;14.48;100.00;100981.63;5015657;28;20443;-70
2022/11/01 08:52:53;;;;;;;22.27;12.00;;;;;;;14.51;100.00;100985.63;5015696;28;20436;-70
2022/11/01 08:55:20;;;;;;;22.00;11.00;;;;;;;14.56;100.00;100971.84;5015620;28;20486;-70
2022/11/01 08:57:48;;;;;;;21.67;10.90;;;;;;;14.59;100.00;100973.94;5015653;28;20440;-70
2022/11/01 09:00:16;;;;;;;21.00;10.57;;;;;;;14.71;100.00;100976.84;5015710;28;20829;-69
2022/11/01 09:02:42;;;;;;;23.50;11.80;;;;;;;14.76;100.00;100990.31;5015437;28;20833;-69
2022/11/01 09:05:09;;;;;;;17.77;10.00;;;;;;;14.77;100.00;100985.66;5015458;28;20468;-70
2022/11/01 09:07:36;;;;;;;22.60;11.53;;;;;;;14.87;100.00;100986.19;5015435;28;20550;-70
2022/11/01 09:10:04;;;;;;;18.23;10.23;;;;;;;14.86;100.00;100975.56;5015235;28;20596;-70
2022/11/01 09:12:31;;;;;;;19.03;10.17;;;;;;;14.86;100.00;100976.38;5015227;28;20456;-70
2022/11/01 09:14:58;;;;;;;18.80;10.43;;;;;;;14.89;100.00;100981.19;5014830;28;20857;-70
2022/11/01 09:17:25;;;;;;;20.17;11.37;;;;;;;14.91;100.00;100969.16;5015092;28;20947;-70
2022/11/01 09:19:51;;;;;;;19.53;10.47;;;;;;;14.91;100.00;100964.50;5015068;28;20453;-70
2022/11/01 09:22:18;;;;;;;22.50;11.27;;;;;;;14.99;100.00;100965.63;5015378;28;20444;-70
2022/11/01 09:24:45;;;;;;;26.40;10.43;;;;;;;15.03;100.00;100961.94;5014798;28;20470;-70
2022/11/01 09:27:11;;;;;;;23.23;10.30;;;;;;;15.09;100.00;100968.00;5015123;28;20444;-71
2022/11/01 09:29:38;;;;;;;20.13;11.43;;;;;;;15.14;100.00;100960.50;5014690;28;20986;-70
2022/11/01 09:32:06;;;;;;;25.37;9.40;;;;;;;15.18;100.00;100952.44;5015014;28;20826;-70
2022/11/01 09:34:33;;;;;;;26.70;10.80;;;;;;;15.20;100.00;100958.41;5014905;28;20476;-70
2022/11/01 09:36:59;;;;;;;16.40;9.43;;;;;;;15.26;100.00;100965.28;5014587;28;20440;-70
2022/11/01 09:39:26;;;;;;;21.97;9.30;;;;;;;15.31;100.00;100984.22;5014692;28;20451;-70
2022/11/01 09:41:58;;;;;;;22.10;9.90;;;;;;;15.33;100.00;100992.09;5014450;28;20906;-70
2022/11/01 09:44:28;;;;;;;14.90;9.73;;;;;;;15.38;100.00;100989.19;5014762;28;20475;-70
2022/11/01 09:46:58;;;;;;;18.13;9.73;;;;;;;15.46;100.00;100995.78;5014793;28;20440;-70
2022/11/01 09:49:31;;;;;;;15.33;8.93;;;;;;;15.49;100.00;101011.50;5014445;28;20475;-70
2022/11/01 09:51:58;;;;;;;17.10;9.50;;;;;;;15.57;100.00;101025.13;5014693;28;20928;-70
2022/11/01 09:54:26;;;;;;;17.20;9.03;;;;;;;15.63;100.00;101020.31;5014347;28;21010;-70
2022/11/01 09:57:03;;;;;;;13.53;8.20;;;;;;;15.64;100.00;101005.56;5014406;28;20444;-70
2022/11/01 09:59:35;;;;;;;15.53;8.27;;;;;;;15.64;100.00;101017.28;5014538;28;20498;-70
2022/11/01 10:02:29;;;;;;;17.20;9.10;;;;;;;15.65;100.00;101023.56;5014327;28;20444;-70
2022/11/01 10:05:28;;;;;;;22.33;8.87;;;;;;;15.65;100.00;101034.47;4975134;28;20499;-70
2022/11/01 10:08:04;;;;;;;17.57;9.60;;;;;;;15.71;100.00;101024.97;5014475;28;20464;-70
2022/11/01 10:10:38;;;;;;;17.10;8.70;;;;;;;15.75;100.00;101031.38;5013989;28;20998;-71
2022/11/01 10:13:15;;;;;;;17.67;8.60;;;;;;;15.81;100.00;101021.13;5013882;28;20796;-70
2022/11/01 10:15:52;;;;;;;19.83;8.43;;;;;;;15.75;100.00;101025.94;5014100;28;20479;-69
2022/11/01 10:18:27;;;;;;;13.63;6.93;;;;;;;15.82;100.00;101033.63;5014381;28;20447;-70
2022/11/01 10:20:56;;;;;;;19.40;7.90;;;;;;;15.87;100.00;101023.34;5014167;28;20755;-70
2022/11/01 10:23:32;;;;;;;16.37;7.60;;;;;;;15.88;100.00;101014.00;5014158;28;20486;-70
2022/11/01 10:25:58;;;;;;;17.53;8.17;;;;;;;15.93;100.00;101004.03;5013995;28;20972;-69
2022/11/01 10:28:32;;;;;;;17.37;7.57;;;;;;;15.97;100.00;100999.50;5013854;28;20432;-70
2022/11/01 10:31:02;;;;;;;15.13;6.57;;;;;;;16.01;100.00;101000.47;5014068;28;20441;-70
2022/11/01 10:33:33;;;;;;;21.03;8.23;;;;;;;15.97;100.00;100997.59;5013960;28;20450;-70
2022/11/01 10:36:03;;;;;;;15.23;8.40;;;;;;;15.85;100.00;101002.94;5013241;28;20452;-70
2022/11/01 10:38:36;;;;;;;13.83;6.43;;;;;;;15.86;100.00;101004.53;5013459;28;20917;-70
2022/11/01 10:41:14;;;;;;;15.93;7.40;;;;;;;15.86;100.00;101005.34;5013929;28;20459;-69
2022/11/01 10:43:46;;;;;;;25.93;9.00;;;;;;;15.88;100.00;101016.72;5013631;28;20515;-69
2022/11/01 10:46:17;;;;;;;15.50;7.57;;;;;;;15.89;100.00;101034.75;5014407;28;20456;-70
2022/11/01 10:48:48;;;;;;;16.70;8.00;;;;;;;15.90;100.00;101038.28;5013543;28;20475;-69
2022/11/01 10:51:20;;;;;;;12.83;7.07;;;;;;;15.89;100.00;101047.59;5013538;28;20961;-70
2022/11/01 10:53:49;;;;;;;16.37;7.33;;;;;;;15.89;100.00;101037.50;5013587;28;20515;-70
2022/11/01 10:56:18;;;;;;;12.93;7.50;;;;;;;15.89;100.00;101040.22;5013735;28;20452;-70
2022/11/01 10:58:53;;;;;;;17.23;7.07;;;;;;;15.89;100.00;101029.28;5013551;28;20437;-70
2022/11/01 11:01:22;;;;;;;24.83;8.70;;;;;;;15.97;100.00;101033.09;5013682;28;20444;-70
2022/11/01 11:03:50;;;;;;;12.20;7.90;;;;;;;16.04;100.00;101033.41;5013319;28;20474;-69
2022/11/01 11:06:19;;;;;;;17.73;8.80;;;;;;;16.11;100.00;101038.34;5013412;28;20448;-71
2022/11/01 11:08:50;;;;;;;12.17;7.37;;;;;;;16.20;100.00;101030.94;5013280;28;20452;-71
2022/11/01 11:11:22;;;;;;;19.77;8.53;;;;;;;16.24;100.00;101034.59;5013457;28;20440;-70
2022/11/01 11:13:53;;;;;;;16.00;8.40;;;;;;;16.36;100.00;101042.94;5013018;28;21008;-70
2022/11/01 11:16:28;;;;;;;13.43;6.93;;;;;;;16.49;100.00;101045.78;5013559;28;20436;-69
2022/11/01 11:19:14;;;;;;;18.43;8.03;;;;;;;16.73;100.00;101047.91;5013424;28;20471;-70